createdAt,value
2019-05-22T00:01:16.090Z,17.13
2019-05-22T00:04:07.942Z,17.14
2019-05-22T00:06:43.802Z,17.15
2019-05-22T00:09:23.236Z,17.14
2019-05-22T00:11:59.429Z,17.17
2019-05-22T00:14:33.526Z,17.15
2019-05-22T00:17:09.814Z,17.15
2019-05-22T00:19:45.262Z,17.13
2019-05-22T00:22:26.852Z,17.12
2019-05-22T00:25:01.898Z,17.07
2019-05-22T00:27:37.830Z,17.05
2019-05-22T00:30:17.207Z,17.05
2019-05-22T00:32:51.445Z,17.07
2019-05-22T00:35:27.942Z,17.09
2019-05-22T00:38:03.674Z,17.11
2019-05-22T00:40:45.687Z,17.12
2019-05-22T00:43:18.974Z,17.11
2019-05-22T00:45:54.951Z,17.12
2019-05-22T00:48:30.727Z,17.13
2019-05-22T00:51:24.390Z,17.13
2019-05-22T00:54:22.806Z,17.12
2019-05-22T00:57:16.008Z,17.09
2019-05-22T00:59:51.561Z,17.09
2019-05-22T01:02:28.266Z,17.07
2019-05-22T01:05:02.455Z,17.07
2019-05-22T01:07:43.424Z,17.03
2019-05-22T01:10:18.869Z,17.00
2019-05-22T01:12:57.260Z,17.01
2019-05-22T01:15:32.321Z,17.02
2019-05-22T01:18:11.155Z,16.97
2019-05-22T01:20:47.276Z,16.96
2019-05-22T01:23:22.190Z,16.94
2019-05-22T01:25:57.557Z,16.93
2019-05-22T01:28:30.772Z,16.94
2019-05-22T01:31:11.747Z,16.93
2019-05-22T01:33:54.486Z,16.92
2019-05-22T01:36:59.068Z,16.90
2019-05-22T01:39:47.955Z,16.86
2019-05-22T01:42:27.998Z,16.88
2019-05-22T01:45:06.565Z,16.85
2019-05-22T01:48:01.227Z,16.85
2019-05-22T01:50:55.671Z,16.83
2019-05-22T01:53:36.811Z,16.79
2019-05-22T01:56:12.993Z,16.76
2019-05-22T01:58:48.584Z,16.75
2019-05-22T02:01:23.958Z,16.72
2019-05-22T02:03:59.113Z,16.70
2019-05-22T02:06:34.525Z,16.71
2019-05-22T02:09:34.075Z,16.72
2019-05-22T02:12:37.963Z,16.69
2019-05-22T02:15:13.620Z,16.65
2019-05-22T02:17:50.286Z,16.64
2019-05-22T02:20:25.010Z,16.65
2019-05-22T02:22:58.875Z,16.60
2019-05-22T02:25:34.931Z,16.54
2019-05-22T02:28:10.797Z,16.48
2019-05-22T02:30:47.313Z,16.46
2019-05-22T02:33:22.695Z,16.45
2019-05-22T02:35:57.666Z,16.40
2019-05-22T02:38:32.611Z,16.34
2019-05-22T02:41:09.253Z,16.34
2019-05-22T02:43:44.102Z,16.32
2019-05-22T02:46:19.235Z,16.33
2019-05-22T02:48:52.755Z,16.33
2019-05-22T02:51:27.088Z,16.34
2019-05-22T02:54:02.633Z,16.34
2019-05-22T02:56:37.512Z,16.34
2019-05-22T02:59:13.253Z,16.35
2019-05-22T03:01:47.835Z,16.34
2019-05-22T03:04:23.309Z,16.30
2019-05-22T03:06:59.138Z,16.31
2019-05-22T03:09:34.685Z,16.29
2019-05-22T03:12:13.770Z,16.29
2019-05-22T03:14:49.369Z,16.30
2019-05-22T03:17:31.985Z,16.29
2019-05-22T03:20:12.823Z,16.32
2019-05-22T03:23:22.994Z,16.30
2019-05-22T03:25:57.406Z,16.25
2019-05-22T03:28:32.640Z,16.25
2019-05-22T03:31:06.374Z,16.25
2019-05-22T03:33:40.393Z,16.28
2019-05-22T03:36:21.574Z,16.29
2019-05-22T03:38:56.269Z,16.31
2019-05-22T03:41:30.826Z,16.32
2019-05-22T03:44:05.944Z,16.36
2019-05-22T03:46:47.037Z,16.40
2019-05-22T03:49:31.182Z,16.42
2019-05-22T03:51:59.330Z,16.45
2019-05-22T03:54:33.828Z,16.42
2019-05-22T03:57:08.347Z,16.41
2019-05-22T03:59:43.299Z,16.42
2019-05-22T04:02:17.346Z,16.41
2019-05-22T04:04:52.728Z,16.41
2019-05-22T04:07:29.191Z,16.40
2019-05-22T04:10:06.237Z,16.40
2019-05-22T04:12:40.845Z,16.41
2019-05-22T04:15:15.054Z,16.41
2019-05-22T04:17:51.448Z,16.38
2019-05-22T04:20:26.552Z,16.39
2019-05-22T04:23:01.469Z,16.42
2019-05-22T04:25:35.781Z,16.42
2019-05-22T04:28:08.788Z,16.41
2019-05-22T04:30:43.184Z,16.38
2019-05-22T04:33:19.378Z,16.38
2019-05-22T04:35:53.188Z,16.39
2019-05-22T04:38:28.869Z,16.39
2019-05-22T04:41:04.293Z,16.38
2019-05-22T04:43:38.920Z,16.34
2019-05-22T04:46:13.162Z,16.31
2019-05-22T04:48:46.725Z,16.26
2019-05-22T04:51:40.006Z,16.24
2019-05-22T04:54:13.902Z,16.20
2019-05-22T04:56:48.857Z,16.17
2019-05-22T04:59:23.660Z,16.21
2019-05-22T05:01:58.281Z,16.21
2019-05-22T05:04:32.390Z,16.24
2019-05-22T05:07:07.502Z,16.29
2019-05-22T05:09:45.672Z,16.33
2019-05-22T05:12:19.229Z,16.37
2019-05-22T05:14:52.565Z,16.41
2019-05-22T05:17:26.015Z,16.43
2019-05-22T05:19:58.809Z,16.47
2019-05-22T05:22:47.155Z,16.52
2019-05-22T05:25:21.232Z,16.52
2019-05-22T05:27:56.054Z,16.53
2019-05-22T05:30:30.862Z,16.55
2019-05-22T05:33:04.343Z,16.56
2019-05-22T05:35:40.028Z,16.57
2019-05-22T05:38:16.325Z,16.63
2019-05-22T05:40:49.557Z,16.68
2019-05-22T05:43:23.744Z,16.73
2019-05-22T05:45:58.645Z,16.77
2019-05-22T05:48:33.699Z,16.80
2019-05-22T05:51:45.982Z,16.85
2019-05-22T05:54:23.653Z,16.89
2019-05-22T05:56:59.184Z,16.87
2019-05-22T05:59:33.709Z,16.88
2019-05-22T06:02:08.666Z,16.94
2019-05-22T06:04:43.566Z,16.98
2019-05-22T06:07:27.283Z,17.03
2019-05-22T06:11:02.922Z,17.03
2019-05-22T06:13:36.881Z,16.98
2019-05-22T06:17:12.105Z,17.06
2019-05-22T06:19:48.969Z,17.04
2019-05-22T06:22:24.012Z,17.03
2019-05-22T06:25:06.957Z,17.07
2019-05-22T06:27:50.529Z,17.17
2019-05-22T06:30:46.636Z,17.28
2019-05-22T06:33:35.662Z,17.36
2019-05-22T06:36:15.438Z,17.40
2019-05-22T06:39:00.463Z,17.40
2019-05-22T06:41:36.482Z,17.47
2019-05-22T06:44:43.851Z,17.49
2019-05-22T06:47:21.560Z,17.48
2019-05-22T06:49:57.126Z,17.54
2019-05-22T06:52:29.734Z,17.63
2019-05-22T06:55:04.943Z,17.71
2019-05-22T06:57:38.583Z,17.75
2019-05-22T07:00:24.167Z,17.78
2019-05-22T07:02:57.874Z,17.78
2019-05-22T07:05:31.885Z,17.87
2019-05-22T07:08:06.147Z,17.94
2019-05-22T07:10:42.275Z,18.00
2019-05-22T07:13:17.124Z,17.96
2019-05-22T07:15:52.678Z,18.00
2019-05-22T07:18:31.900Z,18.06
2019-05-22T07:21:07.356Z,17.99
2019-05-22T07:23:42.511Z,17.96
2019-05-22T07:26:16.919Z,18.00
2019-05-22T07:28:51.411Z,18.08
2019-05-22T07:31:25.382Z,18.13
2019-05-22T07:34:00.270Z,18.18
2019-05-22T07:36:35.405Z,18.17
2019-05-22T07:39:10.690Z,18.05
2019-05-22T07:41:43.438Z,18.08
2019-05-22T07:44:17.241Z,18.08
2019-05-22T07:46:50.158Z,18.16
2019-05-22T07:49:23.679Z,18.15
2019-05-22T07:52:01.600Z,18.17
2019-05-22T07:54:31.676Z,18.15
2019-05-22T07:57:05.356Z,18.23
2019-05-22T07:59:38.390Z,18.30
2019-05-22T08:02:14.305Z,18.29
2019-05-22T08:04:48.129Z,18.28
2019-05-22T08:07:24.682Z,18.28
2019-05-22T08:09:57.924Z,18.30
2019-05-22T08:12:32.396Z,18.31
2019-05-22T08:15:07.193Z,18.36
2019-05-22T08:17:41.622Z,18.42
2019-05-22T08:20:14.923Z,18.52
2019-05-22T08:22:49.176Z,18.60
2019-05-22T08:25:21.567Z,18.71
2019-05-22T08:27:58.666Z,18.78
2019-05-22T08:30:32.303Z,18.78
2019-05-22T08:33:10.650Z,18.82
2019-05-22T08:35:44.312Z,18.89
2019-05-22T08:38:17.526Z,19.02
2019-05-22T08:40:53.050Z,19.04
2019-05-22T08:43:26.053Z,19.15
2019-05-22T08:46:00.090Z,19.17
2019-05-22T08:48:35.514Z,19.19
2019-05-22T08:51:09.874Z,19.25
2019-05-22T08:53:47.985Z,19.27
2019-05-22T08:56:20.210Z,19.28
2019-05-22T08:58:55.016Z,19.30
2019-05-22T09:01:29.081Z,19.39
2019-05-22T09:04:02.606Z,19.37
2019-05-22T09:06:35.182Z,19.47
2019-05-22T09:09:08.994Z,19.51
2019-05-22T09:11:41.452Z,19.46
2019-05-22T09:14:14.874Z,19.51
2019-05-22T09:16:48.903Z,19.57
2019-05-22T09:19:21.362Z,19.64
2019-05-22T09:21:54.920Z,19.77
2019-05-22T09:24:28.892Z,19.91
2019-05-22T09:27:02.889Z,20.06
2019-05-22T09:29:35.139Z,20.23
2019-05-22T09:32:09.230Z,20.36
2019-05-22T09:34:42.521Z,20.46
2019-05-22T09:37:16.791Z,20.57
2019-05-22T09:39:50.817Z,20.65
2019-05-22T09:42:25.044Z,20.72
2019-05-22T09:44:58.298Z,20.64
2019-05-22T09:47:32.951Z,20.58
2019-05-22T09:50:06.864Z,20.58
2019-05-22T09:52:56.361Z,20.59
2019-05-22T09:55:17.656Z,20.62
2019-05-22T09:57:51.275Z,20.60
2019-05-22T10:00:25.711Z,20.61
2019-05-22T10:03:00.031Z,20.63
2019-05-22T10:05:35.205Z,20.65
2019-05-22T10:08:09.354Z,20.72
2019-05-22T10:10:43.240Z,20.81
2019-05-22T10:13:18.053Z,20.80
2019-05-22T10:15:52.531Z,20.82
2019-05-22T10:18:27.240Z,20.84
2019-05-22T10:21:00.715Z,20.85
2019-05-22T10:23:34.177Z,20.85
2019-05-22T10:26:08.304Z,20.86
2019-05-22T10:28:41.965Z,20.91
2019-05-22T10:31:17.290Z,20.96
2019-05-22T10:33:52.016Z,21.04
2019-05-22T10:36:26.118Z,21.18
2019-05-22T10:39:00.777Z,21.31
2019-05-22T10:41:34.673Z,21.47
2019-05-22T10:44:08.297Z,21.55
2019-05-22T10:46:43.246Z,21.57
2019-05-22T10:49:16.728Z,21.49
2019-05-22T10:51:51.595Z,21.39
2019-05-22T10:54:25.407Z,21.38
2019-05-22T10:56:59.727Z,21.39
2019-05-22T10:59:33.084Z,21.47
2019-05-22T11:02:06.958Z,21.56
2019-05-22T11:04:42.104Z,21.62
2019-05-22T11:07:15.976Z,21.67
2019-05-22T11:09:51.638Z,21.80
2019-05-22T11:12:26.132Z,21.90
2019-05-22T11:14:59.405Z,22.02
2019-05-22T11:17:33.371Z,22.07
2019-05-22T11:20:08.174Z,22.20
2019-05-22T11:22:42.926Z,22.41
2019-05-22T11:25:17.270Z,22.51
2019-05-22T11:27:51.246Z,22.54
2019-05-22T11:30:24.968Z,22.55
2019-05-22T11:32:59.662Z,22.48
2019-05-22T11:35:34.789Z,22.39
2019-05-22T11:38:09.446Z,22.26
2019-05-22T11:40:44.061Z,22.11
2019-05-22T11:43:18.279Z,22.05
2019-05-22T11:45:52.070Z,21.92
2019-05-22T11:48:26.014Z,21.83
2019-05-22T11:51:00.979Z,21.74
2019-05-22T11:53:35.067Z,21.65
2019-05-22T11:56:08.970Z,21.57
2019-05-22T11:58:42.518Z,21.49
2019-05-22T12:01:15.439Z,21.41
2019-05-22T12:03:49.240Z,21.40
2019-05-22T12:06:22.105Z,21.63
2019-05-22T12:08:56.074Z,21.73
2019-05-22T12:11:29.099Z,21.82
2019-05-22T12:14:03.005Z,21.80
2019-05-22T12:16:36.664Z,21.85
2019-05-22T12:19:09.860Z,21.83
2019-05-22T12:21:42.791Z,21.80
2019-05-22T12:24:27.105Z,21.79
2019-05-22T12:26:51.020Z,21.72
2019-05-22T12:29:24.452Z,21.69
2019-05-22T12:31:57.654Z,21.65
2019-05-22T12:34:30.619Z,21.61
2019-05-22T12:37:03.632Z,21.61
2019-05-22T12:39:38.322Z,21.58
2019-05-22T12:42:14.061Z,21.55
2019-05-22T12:44:47.058Z,21.58
2019-05-22T12:47:21.562Z,21.59
2019-05-22T12:49:55.760Z,21.68
2019-05-22T12:52:29.856Z,21.80
2019-05-22T12:55:03.154Z,22.08
2019-05-22T12:57:36.512Z,22.61
2019-05-22T13:00:11.989Z,23.11
2019-05-22T13:02:46.600Z,23.66
2019-05-22T13:05:20.393Z,24.07
2019-05-22T13:07:54.302Z,24.23
2019-05-22T13:10:29.350Z,24.21
2019-05-22T13:13:06.202Z,24.10
2019-05-22T13:15:40.624Z,23.91
2019-05-22T13:18:16.397Z,23.73
2019-05-22T13:20:52.177Z,23.59
2019-05-22T13:23:29.192Z,23.56
2019-05-22T13:26:03.148Z,23.57
2019-05-22T13:28:38.813Z,23.58
2019-05-22T13:31:12.847Z,23.55
2019-05-22T13:33:46.882Z,23.56
2019-05-22T13:36:23.029Z,23.63
2019-05-22T13:38:55.619Z,23.54
2019-05-22T13:41:29.916Z,23.51
2019-05-22T13:44:06.516Z,23.40
2019-05-22T13:46:38.867Z,23.33
2019-05-22T13:49:11.461Z,23.22
2019-05-22T13:51:44.096Z,23.15
2019-05-22T13:54:17.152Z,23.10
2019-05-22T13:56:50.598Z,23.12
2019-05-22T13:59:23.927Z,23.20
2019-05-22T14:01:58.766Z,23.17
2019-05-22T14:04:31.634Z,23.14
2019-05-22T14:07:06.789Z,23.06
2019-05-22T14:09:41.760Z,22.99
2019-05-22T14:12:16.351Z,22.88
2019-05-22T14:14:50.311Z,22.86
2019-05-22T14:17:24.421Z,22.78
2019-05-22T14:19:58.236Z,22.77
2019-05-22T14:22:32.333Z,22.74
2019-05-22T14:25:06.168Z,22.63
2019-05-22T14:27:42.034Z,22.49
2019-05-22T14:30:16.879Z,22.19
2019-05-22T14:32:50.192Z,21.95
2019-05-22T14:35:25.886Z,21.75
2019-05-22T14:38:00.456Z,21.60
2019-05-22T14:40:36.304Z,21.48
2019-05-22T14:43:10.668Z,21.36
2019-05-22T14:45:46.305Z,21.38
2019-05-22T14:48:20.755Z,21.54
2019-05-22T14:50:54.613Z,21.79
2019-05-22T14:53:29.307Z,22.24
2019-05-22T14:56:03.942Z,22.42
2019-05-22T14:58:37.328Z,22.48
2019-05-22T15:01:11.419Z,22.16
2019-05-22T15:03:45.365Z,21.41
2019-05-22T15:06:20.776Z,21.15
2019-05-22T15:08:54.892Z,21.13
2019-05-22T15:11:28.884Z,21.05
2019-05-22T15:14:03.049Z,20.86
2019-05-22T15:16:37.600Z,20.56
2019-05-22T15:19:11.856Z,20.16
2019-05-22T15:21:45.796Z,20.17
2019-05-22T15:24:20.393Z,20.16
2019-05-22T15:26:54.771Z,19.78
2019-05-22T15:29:29.187Z,19.51
2019-05-22T15:32:04.237Z,19.36
2019-05-22T15:34:40.911Z,19.30
2019-05-22T15:37:20.138Z,19.15
2019-05-22T15:39:54.593Z,19.02
2019-05-22T15:42:45.055Z,18.98
2019-05-22T15:45:23.566Z,18.81
2019-05-22T15:48:01.717Z,18.53
2019-05-22T15:50:35.365Z,18.49
2019-05-22T15:53:15.140Z,18.29
2019-05-22T15:55:49.989Z,18.28
2019-05-22T15:58:25.906Z,18.20
2019-05-22T16:01:01.317Z,18.13
2019-05-22T16:03:35.731Z,18.09
2019-05-22T16:06:11.424Z,18.12
2019-05-22T16:08:45.710Z,18.15
2019-05-22T16:11:20.720Z,18.15
2019-05-22T16:13:57.795Z,18.16
2019-05-22T16:16:32.850Z,18.11
2019-05-22T16:19:12.500Z,18.07
2019-05-22T16:21:51.016Z,18.09
2019-05-22T16:24:25.315Z,18.08
2019-05-22T16:26:58.936Z,18.06
2019-05-22T16:29:36.943Z,17.96
2019-05-22T16:32:14.901Z,17.98
2019-05-22T16:34:50.007Z,17.95
2019-05-22T16:37:26.257Z,17.57
2019-05-22T16:40:01.293Z,17.46
2019-05-22T16:42:36.578Z,17.50
2019-05-22T16:45:11.558Z,17.38
2019-05-22T16:47:46.366Z,17.35
2019-05-22T16:50:21.009Z,17.13
2019-05-22T16:52:55.426Z,17.02
2019-05-22T16:55:30.351Z,16.78
2019-05-22T16:58:04.777Z,16.89
2019-05-22T17:00:39.439Z,16.98
2019-05-22T17:03:14.276Z,16.97
2019-05-22T17:05:47.724Z,16.97
2019-05-22T17:08:23.705Z,16.94
2019-05-22T17:10:59.302Z,16.77
2019-05-22T17:13:35.827Z,16.71
2019-05-22T17:16:10.879Z,16.53
2019-05-22T17:18:47.993Z,16.05
2019-05-22T17:21:20.787Z,16.22
2019-05-22T17:23:54.657Z,16.33
2019-05-22T17:26:27.912Z,16.26
2019-05-22T17:29:01.482Z,16.01
2019-05-22T17:31:35.248Z,15.92
2019-05-22T17:34:28.035Z,16.05
2019-05-22T17:37:03.343Z,16.15
2019-05-22T17:39:38.596Z,16.26
2019-05-22T17:42:14.327Z,16.29
2019-05-22T17:44:51.077Z,16.30
2019-05-22T17:47:27.205Z,16.27
2019-05-22T17:50:02.444Z,16.32
2019-05-22T17:52:35.611Z,16.31
2019-05-22T17:55:10.193Z,16.31
2019-05-22T17:57:43.963Z,16.24
2019-05-22T18:00:38.528Z,16.25
2019-05-22T18:03:11.299Z,16.23
2019-05-22T18:05:45.098Z,16.20
2019-05-22T18:08:18.377Z,16.17
2019-05-22T18:10:54.242Z,16.10
2019-05-22T18:13:28.881Z,16.01
2019-05-22T18:16:04.769Z,16.03
2019-05-22T18:18:38.508Z,15.93
2019-05-22T18:21:12.750Z,15.90
2019-05-22T18:23:47.211Z,15.86
2019-05-22T18:26:21.947Z,15.87
2019-05-22T18:28:56.264Z,15.80
2019-05-22T18:31:28.725Z,15.84
2019-05-22T18:34:01.570Z,15.86
2019-05-22T18:36:34.150Z,15.76
2019-05-22T18:39:09.708Z,15.75
2019-05-22T18:41:43.678Z,15.76
2019-05-22T18:44:17.946Z,15.72
2019-05-22T18:46:51.784Z,15.77
2019-05-22T18:49:25.923Z,15.76
2019-05-22T18:52:00.633Z,15.78
2019-05-22T18:54:34.727Z,15.78
2019-05-22T18:57:08.593Z,15.77
2019-05-22T18:59:42.461Z,15.77
2019-05-22T19:02:16.104Z,15.73
2019-05-22T19:04:49.062Z,15.74
2019-05-22T19:07:21.931Z,15.72
2019-05-22T19:09:55.042Z,15.62
2019-05-22T19:12:28.539Z,15.57
2019-05-22T19:15:01.330Z,15.54
2019-05-22T19:17:34.410Z,15.55
2019-05-22T19:20:07.278Z,15.43
2019-05-22T19:22:58.063Z,15.41
2019-05-22T19:25:15.749Z,15.43
2019-05-22T19:27:49.629Z,15.40
2019-05-22T19:30:24.348Z,15.39
2019-05-22T19:32:57.047Z,15.37
2019-05-22T19:35:29.081Z,15.30
2019-05-22T19:38:02.318Z,15.29
2019-05-22T19:40:36.245Z,15.23
2019-05-22T19:43:09.760Z,15.20
2019-05-22T19:45:43.279Z,15.21
2019-05-22T19:48:16.317Z,15.15
2019-05-22T19:50:49.694Z,15.15
2019-05-22T19:53:23.357Z,15.15
2019-05-22T19:55:56.726Z,15.15
2019-05-22T19:58:30.408Z,15.14
2019-05-22T20:01:03.585Z,15.08
2019-05-22T20:03:38.001Z,15.07
2019-05-22T20:06:11.783Z,15.08
2019-05-22T20:08:45.682Z,15.02
2019-05-22T20:11:19.434Z,15.01
2019-05-22T20:13:52.359Z,14.99
2019-05-22T20:16:25.767Z,15.03
2019-05-22T20:18:59.711Z,15.04
2019-05-22T20:21:32.707Z,15.02
2019-05-22T20:24:08.250Z,14.95
2019-05-22T20:26:40.755Z,14.91
2019-05-22T20:29:17.843Z,14.88
2019-05-22T20:31:50.604Z,14.84
2019-05-22T20:34:23.804Z,14.87
2019-05-22T20:36:57.738Z,14.88
2019-05-22T20:39:31.589Z,14.88
2019-05-22T20:42:05.205Z,14.88
2019-05-22T20:44:40.290Z,14.89
2019-05-22T20:47:17.312Z,14.90
2019-05-22T20:49:49.934Z,14.91
2019-05-22T20:52:26.068Z,14.90
2019-05-22T20:55:02.227Z,14.86
2019-05-22T20:57:36.361Z,14.81
2019-05-22T21:00:11.968Z,14.80
2019-05-22T21:02:45.684Z,14.82
2019-05-22T21:05:22.303Z,14.79
2019-05-22T21:08:00.530Z,14.81
2019-05-22T21:10:35.395Z,14.76
2019-05-22T21:13:10.686Z,14.79
2019-05-22T21:15:45.407Z,14.79
2019-05-22T21:18:21.754Z,14.80
2019-05-22T21:20:56.682Z,14.82
2019-05-22T21:23:31.790Z,14.81
2019-05-22T21:26:07.493Z,14.79
2019-05-22T21:28:41.815Z,14.82
2019-05-22T21:31:17.232Z,14.82
2019-05-22T21:33:50.701Z,14.82
2019-05-22T21:36:25.664Z,14.76
2019-05-22T21:39:00.785Z,14.75
2019-05-22T21:41:34.544Z,14.73
2019-05-22T21:44:09.976Z,14.73
2019-05-22T21:46:44.516Z,14.76
2019-05-22T21:49:20.204Z,14.71
2019-05-22T21:51:54.955Z,14.72
2019-05-22T21:54:29.302Z,14.75
2019-05-22T21:57:03.205Z,14.72
2019-05-22T21:59:37.551Z,14.65
2019-05-22T22:02:25.212Z,14.67
2019-05-22T22:04:59.327Z,14.64
2019-05-22T22:07:33.557Z,14.61
2019-05-22T22:10:07.827Z,14.61
2019-05-22T22:12:42.405Z,14.57
2019-05-22T22:15:15.424Z,14.58
2019-05-22T22:17:49.486Z,14.57
2019-05-22T22:20:24.234Z,14.54
2019-05-22T22:22:59.094Z,14.61
2019-05-22T22:25:33.156Z,14.60
2019-05-22T22:28:06.686Z,14.56
2019-05-22T22:30:47.037Z,14.58
2019-05-22T22:33:25.054Z,14.61
2019-05-22T22:35:59.266Z,14.54
2019-05-22T22:38:35.755Z,14.52
2019-05-22T22:41:13.021Z,14.49
2019-05-22T22:43:49.565Z,14.49
2019-05-22T22:46:40.783Z,14.51
2019-05-22T22:49:19.337Z,14.54
2019-05-22T22:51:54.176Z,14.54
2019-05-22T22:54:28.656Z,14.56
2019-05-22T22:57:03.748Z,14.56
2019-05-22T22:59:38.481Z,14.54
2019-05-22T23:02:17.497Z,14.50
2019-05-22T23:04:52.787Z,14.51
2019-05-22T23:07:28.161Z,14.50
2019-05-22T23:10:02.807Z,14.41
2019-05-22T23:12:39.878Z,14.44
2019-05-22T23:15:18.284Z,14.36
2019-05-22T23:17:53.743Z,14.39
2019-05-22T23:20:22.439Z,14.41
2019-05-22T23:22:52.632Z,14.32
2019-05-22T23:25:27.184Z,14.35
2019-05-22T23:28:03.189Z,14.31
2019-05-22T23:30:37.865Z,14.31
2019-05-22T23:33:11.565Z,14.25
2019-05-22T23:35:45.631Z,14.28
2019-05-22T23:38:19.766Z,14.27
2019-05-22T23:40:55.420Z,14.29
2019-05-22T23:43:30.318Z,14.29
2019-05-22T23:46:04.283Z,14.19
2019-05-22T23:48:38.762Z,14.22
2019-05-22T23:51:13.674Z,14.19
2019-05-22T23:53:48.834Z,14.25
2019-05-22T23:56:23.705Z,14.25
2019-05-22T23:58:59.118Z,14.17
